createdAt,value
2022-11-04T00:00:09.172Z,44.08
2022-11-04T00:02:35.609Z,43.45
2022-11-04T00:05:01.861Z,43.10
2022-11-04T00:07:46.881Z,43.48
2022-11-04T00:10:13.317Z,43.17
2022-11-04T00:12:39.923Z,42.84
2022-11-04T00:15:25.186Z,42.56
2022-11-04T00:17:51.464Z,42.40
2022-11-04T00:20:36.437Z,42.67
2022-11-04T00:23:21.402Z,42.32
2022-11-04T00:26:06.241Z,42.33
2022-11-04T00:28:44.667Z,42.26
2022-11-04T00:31:29.697Z,42.44
2022-11-04T00:33:57.350Z,42.39
2022-11-04T00:36:24.254Z,42.53
2022-11-04T00:38:50.699Z,42.89
2022-11-04T00:41:26.433Z,42.63
2022-11-04T00:43:53.568Z,42.81
2022-11-04T00:46:20.133Z,42.76
2022-11-04T00:48:46.360Z,42.59
2022-11-04T00:53:39.825Z,42.50
2022-11-04T00:56:06.297Z,43.03
2022-11-04T00:58:32.701Z,43.04
2022-11-04T01:00:59.413Z,43.17
2022-11-04T01:03:25.728Z,42.54
2022-11-04T01:05:52.045Z,42.78
2022-11-04T01:08:18.558Z,42.64
2022-11-04T01:10:46.093Z,42.83
2022-11-04T01:13:12.384Z,42.68
2022-11-04T01:15:38.916Z,42.37
2022-11-04T01:18:06.174Z,42.42
2022-11-04T01:20:33.777Z,42.54
2022-11-04T01:22:59.991Z,42.60
2022-11-04T01:25:26.404Z,42.47
2022-11-04T01:27:52.633Z,42.69
2022-11-04T01:30:19.005Z,42.83
2022-11-04T01:32:45.436Z,42.32
2022-11-04T01:35:11.718Z,42.48
2022-11-04T01:37:38.121Z,42.67
2022-11-04T01:40:04.958Z,42.57
2022-11-04T01:42:31.295Z,43.04
2022-11-04T01:45:00.452Z,42.96
2022-11-04T01:47:30.713Z,42.61
2022-11-04T01:50:00.600Z,42.95
2022-11-04T01:52:37.421Z,43.28
2022-11-04T01:55:07.166Z,42.85
2022-11-04T01:57:37.494Z,42.91
2022-11-04T02:00:06.029Z,42.78
2022-11-04T02:02:33.052Z,42.92
2022-11-04T02:04:59.977Z,43.03
2022-11-04T02:07:26.423Z,42.96
2022-11-04T02:09:53.042Z,42.70
2022-11-04T02:12:38.059Z,42.63
2022-11-04T02:15:04.504Z,42.52
2022-11-04T02:17:41.094Z,42.98
2022-11-04T02:20:17.790Z,42.99
2022-11-04T02:22:59.584Z,42.84
2022-11-04T02:25:28.981Z,43.12
2022-11-04T02:27:58.887Z,42.91
2022-11-04T02:30:27.236Z,43.13
2022-11-04T02:33:12.315Z,43.00
2022-11-04T02:36:02.010Z,42.83
2022-11-04T02:38:31.576Z,43.48
2022-11-04T02:41:04.549Z,43.11
2022-11-04T02:43:41.740Z,43.70
2022-11-04T02:46:07.939Z,43.88
2022-11-04T02:48:56.318Z,43.31
2022-11-04T02:51:28.798Z,43.87
2022-11-04T02:53:55.164Z,43.71
2022-11-04T02:56:22.696Z,43.81
2022-11-04T02:58:54.616Z,43.32
2022-11-04T03:01:21.334Z,43.42
2022-11-04T03:03:55.522Z,42.97
2022-11-04T03:06:23.712Z,43.63
2022-11-04T03:08:52.242Z,43.42
2022-11-04T03:11:19.877Z,42.86
2022-11-04T03:13:48.538Z,43.17
2022-11-04T03:16:19.220Z,43.20
2022-11-04T03:19:01.253Z,43.08
2022-11-04T03:21:28.659Z,42.80
2022-11-04T03:23:55.667Z,43.57
2022-11-04T03:26:26.936Z,43.06
2022-11-04T03:29:02.098Z,42.95
2022-11-04T03:31:48.617Z,42.91
2022-11-04T03:34:15.145Z,43.05
2022-11-04T03:36:41.607Z,42.65
2022-11-04T03:39:07.907Z,43.09
2022-11-04T03:41:36.313Z,42.73
2022-11-04T03:44:02.849Z,43.17
2022-11-04T03:46:29.131Z,42.68
2022-11-04T03:48:55.843Z,42.94
2022-11-04T03:51:22.199Z,42.82
2022-11-04T03:53:48.653Z,42.77
2022-11-04T03:56:20.937Z,42.82
2022-11-04T03:58:58.849Z,42.60
2022-11-04T04:01:31.697Z,42.58
2022-11-04T04:04:01.313Z,42.79
2022-11-04T04:06:31.129Z,42.97
2022-11-04T04:09:05.149Z,43.23
2022-11-04T04:11:53.306Z,43.33
2022-11-04T04:14:40.070Z,43.16
2022-11-04T04:17:21.727Z,43.55
2022-11-04T04:19:52.173Z,43.15
2022-11-04T04:22:21.721Z,43.29
2022-11-04T04:25:07.995Z,43.01
2022-11-04T04:27:35.122Z,43.47
2022-11-04T04:30:06.126Z,43.09
2022-11-04T04:32:42.010Z,43.37
2022-11-04T04:35:27.333Z,43.17
2022-11-04T04:37:55.621Z,43.34
2022-11-04T04:40:44.618Z,43.21
2022-11-04T04:43:34.195Z,43.51
2022-11-04T04:46:00.917Z,43.54
2022-11-04T04:48:27.366Z,43.36
2022-11-04T04:50:56.887Z,43.65
2022-11-04T04:53:23.649Z,43.81
2022-11-04T04:55:49.911Z,43.58
2022-11-04T04:58:16.134Z,43.66
2022-11-04T05:00:42.973Z,43.69
2022-11-04T05:03:09.448Z,43.76
2022-11-04T05:05:35.851Z,43.39
2022-11-04T05:08:06.670Z,43.26
2022-11-04T05:10:33.324Z,43.50
2022-11-04T05:13:18.656Z,43.48
2022-11-04T05:15:45.026Z,43.33
2022-11-04T05:18:11.571Z,43.09
2022-11-04T05:20:40.188Z,43.40
2022-11-04T05:23:08.429Z,43.01
2022-11-04T05:25:34.687Z,43.36
2022-11-04T05:28:02.091Z,43.60
2022-11-04T05:30:28.702Z,43.36
2022-11-04T05:32:58.435Z,43.45
2022-11-04T05:35:28.012Z,43.51
2022-11-04T05:37:55.432Z,43.45
2022-11-04T05:40:21.811Z,43.62
2022-11-04T05:42:48.066Z,43.46
2022-11-04T05:45:14.311Z,43.36
2022-11-04T05:47:40.674Z,43.64
2022-11-04T05:50:07.371Z,43.43
2022-11-04T05:52:34.903Z,43.37
2022-11-04T05:55:01.325Z,43.25
2022-11-04T05:57:28.087Z,43.34
2022-11-04T05:59:54.307Z,43.16
2022-11-04T06:02:20.701Z,43.14
2022-11-04T06:04:47.210Z,43.57
2022-11-04T06:07:13.706Z,43.33
2022-11-04T06:09:40.011Z,43.46
2022-11-04T06:12:07.677Z,43.66
2022-11-04T06:14:34.029Z,43.54
2022-11-04T06:17:00.996Z,43.67
2022-11-04T06:19:27.518Z,43.64
2022-11-04T06:21:54.554Z,43.68
2022-11-04T06:24:20.990Z,43.66
2022-11-04T06:26:47.233Z,43.52
2022-11-04T06:29:13.675Z,43.50
2022-11-04T06:31:40.076Z,43.62
2022-11-04T06:34:06.342Z,43.66
2022-11-04T06:36:32.600Z,43.73
2022-11-04T06:39:04.464Z,43.65
2022-11-04T06:41:32.537Z,43.81
2022-11-04T06:43:58.819Z,43.77
2022-11-04T06:46:26.732Z,44.00
2022-11-04T06:48:53.231Z,43.96
2022-11-04T06:51:19.729Z,43.81
2022-11-04T06:53:46.244Z,44.03
2022-11-04T06:56:12.575Z,43.90
2022-11-04T06:58:38.867Z,44.03
2022-11-04T07:01:12.636Z,44.29
2022-11-04T07:03:40.957Z,44.19
2022-11-04T07:06:08.288Z,44.31
2022-11-04T07:08:34.710Z,44.36
2022-11-04T07:11:01.375Z,44.45
2022-11-04T07:13:27.828Z,44.45
2022-11-04T07:15:54.048Z,44.31
2022-11-04T07:18:20.291Z,44.21
2022-11-04T07:20:47.073Z,44.24
2022-11-04T07:23:14.345Z,44.32
2022-11-04T07:25:40.625Z,44.55
2022-11-04T07:28:06.886Z,44.34
2022-11-04T07:30:33.173Z,44.48
2022-11-04T07:32:59.498Z,44.35
2022-11-04T07:35:25.756Z,44.47
2022-11-04T07:37:54.692Z,44.29
2022-11-04T07:40:20.942Z,44.31
2022-11-04T07:42:47.430Z,44.48
2022-11-04T07:45:13.785Z,44.14
2022-11-04T07:47:40.128Z,44.25
2022-11-04T07:50:10.718Z,44.47
2022-11-04T07:52:38.856Z,44.57
2022-11-04T07:55:05.609Z,44.43
2022-11-04T07:57:31.963Z,44.53
2022-11-04T07:59:58.407Z,44.48
2022-11-04T08:02:29.806Z,44.15
2022-11-04T08:05:00.345Z,44.48
2022-11-04T08:07:26.596Z,44.34
2022-11-04T08:09:53.044Z,44.52
2022-11-04T08:12:20.891Z,44.25
2022-11-04T08:14:48.468Z,43.98
2022-11-04T08:17:14.944Z,44.25
2022-11-04T08:19:41.297Z,44.06
2022-11-04T08:22:08.538Z,44.09
2022-11-04T08:24:35.278Z,44.06
2022-11-04T08:27:01.901Z,44.43
2022-11-04T08:29:28.486Z,43.83
2022-11-04T08:31:54.880Z,44.35
2022-11-04T08:34:21.332Z,44.22
2022-11-04T08:36:47.665Z,44.10
2022-11-04T08:39:14.010Z,43.79
2022-11-04T08:41:42.252Z,43.57
2022-11-04T08:44:08.815Z,43.84
2022-11-04T08:46:37.334Z,43.66
2022-11-04T08:49:09.478Z,43.67
2022-11-04T08:51:38.248Z,43.84
2022-11-04T08:54:05.548Z,43.64
2022-11-04T08:56:33.383Z,43.63
2022-11-04T08:59:00.969Z,43.70
2022-11-04T09:01:32.636Z,43.61
2022-11-04T09:04:03.631Z,43.74
2022-11-04T09:06:34.799Z,43.78
2022-11-04T09:09:04.714Z,43.53
2022-11-04T09:11:31.794Z,43.89
2022-11-04T09:14:01.845Z,43.90
2022-11-04T09:16:29.434Z,43.96
2022-11-04T09:18:56.939Z,44.10
2022-11-04T09:21:23.579Z,44.05
2022-11-04T09:23:50.015Z,43.93
2022-11-04T09:26:16.469Z,43.93
2022-11-04T09:28:42.923Z,43.71
2022-11-04T09:31:12.827Z,43.34
2022-11-04T09:33:40.411Z,43.53
2022-11-04T09:36:08.704Z,43.43
2022-11-04T09:38:35.787Z,43.23
2022-11-04T09:41:08.041Z,42.91
2022-11-04T09:43:36.764Z,43.05
2022-11-04T09:46:03.823Z,42.96
2022-11-04T09:48:33.887Z,42.79
2022-11-04T09:51:02.575Z,42.58
2022-11-04T09:53:41.025Z,42.51
2022-11-04T09:56:13.488Z,42.49
2022-11-04T09:58:39.836Z,42.58
2022-11-04T10:01:18.503Z,42.39
2022-11-04T10:03:51.165Z,42.48
2022-11-04T10:06:17.439Z,42.44
2022-11-04T10:08:49.563Z,42.33
2022-11-04T10:11:20.539Z,42.19
2022-11-04T10:14:11.214Z,42.13
2022-11-04T10:16:57.078Z,42.24
2022-11-04T10:19:26.649Z,42.21
2022-11-04T10:22:02.948Z,42.03
2022-11-04T10:24:44.453Z,42.17
2022-11-04T10:27:15.212Z,42.26
2022-11-04T10:29:44.024Z,42.00
2022-11-04T10:32:19.474Z,42.17
2022-11-04T10:34:58.849Z,42.03
2022-11-04T10:37:26.400Z,42.43
2022-11-04T10:39:56.865Z,42.08
2022-11-04T10:42:23.372Z,42.57
2022-11-04T10:44:51.026Z,42.56
2022-11-04T10:47:29.294Z,42.54
2022-11-04T10:50:28.843Z,42.64
2022-11-04T10:53:10.444Z,42.75
2022-11-04T10:55:44.498Z,42.70
2022-11-04T10:58:19.923Z,42.88
2022-11-04T11:00:46.346Z,42.56
2022-11-04T11:03:22.955Z,42.88
2022-11-04T11:05:49.647Z,42.82
2022-11-04T11:08:33.270Z,42.59
2022-11-04T11:10:59.656Z,42.67
2022-11-04T11:13:28.473Z,42.53
2022-11-04T11:16:06.164Z,42.83
2022-11-04T11:18:32.664Z,42.67
2022-11-04T11:21:23.474Z,42.65
2022-11-04T11:23:51.281Z,42.65
2022-11-04T11:26:31.331Z,42.71
2022-11-04T11:29:02.188Z,42.63
2022-11-04T11:31:39.256Z,42.54
2022-11-04T11:34:18.069Z,42.51
2022-11-04T11:36:44.985Z,42.57
2022-11-04T11:39:12.031Z,42.43
2022-11-04T11:41:57.045Z,42.54
2022-11-04T11:44:26.173Z,42.41
2022-11-04T11:46:54.816Z,42.50
2022-11-04T11:49:24.043Z,42.39
2022-11-04T11:51:50.766Z,42.45
2022-11-04T11:54:33.397Z,42.38
2022-11-04T11:57:24.935Z,42.25
2022-11-04T12:03:00.068Z,42.20
2022-11-04T12:11:47.581Z,42.04
2022-11-04T12:14:18.440Z,41.99
2022-11-04T12:17:10.059Z,41.89
2022-11-04T12:19:47.577Z,42.02
2022-11-04T12:22:22.948Z,41.91
2022-11-04T12:25:21.811Z,42.04
2022-11-04T12:27:58.901Z,42.02
2022-11-04T12:30:32.373Z,42.19
2022-11-04T12:33:14.353Z,42.20
2022-11-04T12:35:40.630Z,42.06
2022-11-04T12:38:16.252Z,42.01
2022-11-04T12:41:18.737Z,42.13
2022-11-04T12:43:45.057Z,42.31
2022-11-04T12:46:29.895Z,42.16
2022-11-04T12:49:15.028Z,42.10
2022-11-04T12:51:44.529Z,42.05
2022-11-04T12:54:25.006Z,42.23
2022-11-04T12:57:03.069Z,42.21
2022-11-04T12:59:40.175Z,41.96
2022-11-04T13:02:12.738Z,41.87
2022-11-04T13:04:43.039Z,42.06
2022-11-04T13:07:28.178Z,42.05
2022-11-04T13:09:58.042Z,41.79
2022-11-04T13:12:26.833Z,41.82
2022-11-04T13:14:56.376Z,41.70
2022-11-04T13:17:27.366Z,41.67
2022-11-04T13:19:55.170Z,41.78
2022-11-04T13:22:31.226Z,41.97
2022-11-04T13:25:04.482Z,41.88
2022-11-04T13:27:39.623Z,41.93
2022-11-04T13:30:15.334Z,41.97
2022-11-04T13:33:02.485Z,41.89
2022-11-04T13:35:33.979Z,41.98
2022-11-04T13:38:15.035Z,42.02
2022-11-04T13:40:41.227Z,41.78
2022-11-04T13:43:36.497Z,41.82
2022-11-04T13:46:03.022Z,41.82
2022-11-04T13:48:31.571Z,41.80
2022-11-04T13:51:09.201Z,41.92
2022-11-04T13:53:43.050Z,42.20
2022-11-04T13:56:32.209Z,42.03
2022-11-04T13:58:58.906Z,41.97
2022-11-04T14:01:27.213Z,41.86
2022-11-04T14:04:13.963Z,42.10
2022-11-04T14:06:49.294Z,41.86
2022-11-04T14:09:34.407Z,41.96
2022-11-04T14:12:20.116Z,41.93
2022-11-04T14:14:46.428Z,41.84
2022-11-04T14:17:31.230Z,41.88
2022-11-04T14:19:58.951Z,41.89
2022-11-04T14:22:29.487Z,41.95
2022-11-04T14:25:01.368Z,41.89
2022-11-04T14:27:30.973Z,41.89
2022-11-04T14:29:58.076Z,41.89
2022-11-04T14:32:30.816Z,41.94
2022-11-04T14:34:59.389Z,41.83
2022-11-04T14:37:32.076Z,41.89
2022-11-04T14:39:59.460Z,41.93
2022-11-04T14:42:44.483Z,42.14
2022-11-04T14:45:16.761Z,41.93
2022-11-04T14:47:46.295Z,41.93
2022-11-04T14:50:17.907Z,41.90
2022-11-04T14:52:44.171Z,41.87
2022-11-04T14:55:10.967Z,41.93
2022-11-04T14:57:39.019Z,41.96
2022-11-04T15:00:20.982Z,41.95
2022-11-04T15:02:48.143Z,41.91
2022-11-04T15:05:25.994Z,41.95
2022-11-04T15:07:52.433Z,41.96
2022-11-04T15:10:22.901Z,41.88
2022-11-04T15:12:52.016Z,41.93
2022-11-04T15:15:28.909Z,41.87
2022-11-04T15:18:03.290Z,41.94
2022-11-04T15:20:30.715Z,41.97
2022-11-04T15:22:58.983Z,42.03
2022-11-04T15:25:25.476Z,41.95
2022-11-04T15:27:53.193Z,41.93
2022-11-04T15:30:27.921Z,41.75
2022-11-04T15:33:01.530Z,41.81
2022-11-04T15:35:31.907Z,41.87
2022-11-04T15:37:59.292Z,41.89
2022-11-04T15:40:29.364Z,41.83
2022-11-04T15:42:56.180Z,42.00
2022-11-04T15:45:22.615Z,41.89
2022-11-04T15:47:49.108Z,41.85
2022-11-04T15:50:25.660Z,41.94
2022-11-04T15:52:53.629Z,42.12
2022-11-04T15:55:21.304Z,41.96
2022-11-04T15:57:47.809Z,42.18
2022-11-04T16:00:14.084Z,42.08
2022-11-04T16:02:51.380Z,42.07
2022-11-04T16:05:23.075Z,42.00
2022-11-04T16:07:51.286Z,41.93
2022-11-04T16:10:21.470Z,42.12
2022-11-04T16:12:47.735Z,42.04
2022-11-04T16:15:30.579Z,42.05
2022-11-04T16:17:56.941Z,42.19
2022-11-04T16:20:24.804Z,42.25
2022-11-04T16:22:55.585Z,42.09
2022-11-04T16:25:23.665Z,42.43
2022-11-04T16:27:50.741Z,42.25
2022-11-04T16:30:21.831Z,42.07
2022-11-04T16:32:49.246Z,42.07
2022-11-04T16:35:19.977Z,42.34
2022-11-04T16:37:46.858Z,42.33
2022-11-04T16:40:13.747Z,42.20
2022-11-04T16:42:40.393Z,42.21
2022-11-04T16:45:09.893Z,42.25
2022-11-04T16:47:38.012Z,42.29
2022-11-04T16:50:10.489Z,42.41
2022-11-04T16:52:40.237Z,42.23
2022-11-04T16:55:11.856Z,42.55
2022-11-04T16:57:39.695Z,42.46
2022-11-04T17:00:07.159Z,42.57
2022-11-04T17:02:37.839Z,42.31
2022-11-04T17:05:05.059Z,42.33
2022-11-04T17:07:51.473Z,42.52
2022-11-04T17:10:19.363Z,42.57
2022-11-04T17:12:46.072Z,42.51
2022-11-04T17:15:13.865Z,42.37
2022-11-04T17:17:40.596Z,42.44
2022-11-04T17:20:07.411Z,42.47
2022-11-04T17:22:36.876Z,42.56
2022-11-04T17:25:03.680Z,42.54
2022-11-04T17:27:29.911Z,42.49
2022-11-04T17:29:56.457Z,42.48
2022-11-04T17:32:22.936Z,42.36
2022-11-04T17:34:49.399Z,42.51
2022-11-04T17:37:15.711Z,42.42
2022-11-04T17:39:42.029Z,42.27
2022-11-04T17:42:27.169Z,42.62
2022-11-04T17:44:53.873Z,42.29
2022-11-04T17:47:20.147Z,42.53
2022-11-04T17:49:46.732Z,42.42
2022-11-04T17:52:12.986Z,42.46
2022-11-04T17:54:39.437Z,42.56
2022-11-04T17:57:06.726Z,42.61
2022-11-04T17:59:36.737Z,42.59
2022-11-04T18:02:03.528Z,42.55
2022-11-04T18:04:29.998Z,42.72
2022-11-04T18:07:02.375Z,42.97
2022-11-04T18:09:29.543Z,42.68
2022-11-04T18:12:14.612Z,42.93
2022-11-04T18:14:40.881Z,43.04
2022-11-04T18:17:07.168Z,42.85
2022-11-04T18:19:33.708Z,42.68
2022-11-04T18:22:00.748Z,42.70
2022-11-04T18:24:27.409Z,42.85
2022-11-04T18:26:53.689Z,42.97
2022-11-04T18:29:23.389Z,42.83
2022-11-04T18:31:50.063Z,42.55
2022-11-04T18:34:19.137Z,42.73
2022-11-04T18:36:46.148Z,43.00
2022-11-04T18:39:14.119Z,42.57
2022-11-04T18:41:41.454Z,42.63
2022-11-04T18:44:14.356Z,42.61
2022-11-04T18:46:40.694Z,42.60
2022-11-04T18:49:07.019Z,42.64
2022-11-04T18:51:33.347Z,42.81
2022-11-04T18:54:02.974Z,42.61
2022-11-04T18:56:29.286Z,42.62
2022-11-04T18:58:55.948Z,42.87
2022-11-04T19:01:31.181Z,42.75
2022-11-04T19:03:59.250Z,42.80
2022-11-04T19:06:27.464Z,42.61
2022-11-04T19:08:59.617Z,42.42
2022-11-04T19:11:29.600Z,42.78
2022-11-04T19:13:57.276Z,42.84
2022-11-04T19:16:24.271Z,42.70
2022-11-04T19:18:50.781Z,42.43
2022-11-04T19:21:18.882Z,42.47
2022-11-04T19:23:45.204Z,42.64
2022-11-04T19:26:12.848Z,42.91
2022-11-04T19:28:47.536Z,42.74
2022-11-04T19:31:19.897Z,42.54
2022-11-04T19:33:46.762Z,42.60
2022-11-04T19:36:14.190Z,42.59
2022-11-04T19:38:42.874Z,42.68
2022-11-04T19:41:32.350Z,43.09
2022-11-04T19:44:00.416Z,42.63
2022-11-04T19:46:26.654Z,42.78
2022-11-04T19:48:53.171Z,43.14
2022-11-04T19:51:19.436Z,42.89
2022-11-04T19:53:46.759Z,42.93
2022-11-04T19:56:14.289Z,43.00
2022-11-04T19:58:40.498Z,43.29
2022-11-04T20:01:07.140Z,43.16
2022-11-04T20:03:33.400Z,42.98
2022-11-04T20:05:59.604Z,43.43
2022-11-04T20:08:25.804Z,43.09
2022-11-04T20:10:52.238Z,43.21
2022-11-04T20:13:37.717Z,43.08
2022-11-04T20:16:12.457Z,43.50
2022-11-04T20:18:39.281Z,43.21
2022-11-04T20:21:05.800Z,43.19
2022-11-04T20:23:32.085Z,43.21
2022-11-04T20:26:05.549Z,43.48
2022-11-04T20:28:31.799Z,43.20
2022-11-04T20:30:58.439Z,43.39
2022-11-04T20:33:24.685Z,43.31
2022-11-04T20:35:51.630Z,43.25
2022-11-04T20:38:18.078Z,43.40
2022-11-04T20:40:47.017Z,43.57
2022-11-04T20:43:14.246Z,43.50
2022-11-04T20:45:40.542Z,43.45
2022-11-04T20:48:07.116Z,43.65
2022-11-04T20:50:33.754Z,43.72
2022-11-04T20:53:00.443Z,43.63
2022-11-04T20:55:28.000Z,43.77
2022-11-04T20:57:54.276Z,43.76
2022-11-04T21:00:21.415Z,43.92
2022-11-04T21:02:47.770Z,43.94
2022-11-04T21:05:15.069Z,44.13
2022-11-04T21:07:43.613Z,44.16
2022-11-04T21:10:09.880Z,44.17
2022-11-04T21:12:36.219Z,44.34
2022-11-04T21:15:02.457Z,44.19
2022-11-04T21:17:28.957Z,44.10
2022-11-04T21:19:55.770Z,44.21
2022-11-04T21:22:22.652Z,44.44
2022-11-04T21:24:48.886Z,44.04
2022-11-04T21:27:15.173Z,44.19
2022-11-04T21:29:41.523Z,44.03
2022-11-04T21:32:08.013Z,44.36
2022-11-04T21:34:34.268Z,43.84
2022-11-04T21:37:00.520Z,44.01
2022-11-04T21:39:26.730Z,43.83
2022-11-04T21:41:53.144Z,44.13
2022-11-04T21:44:19.751Z,44.44
2022-11-04T21:46:49.361Z,44.14
2022-11-04T21:49:15.644Z,44.63
2022-11-04T21:51:41.895Z,44.19
2022-11-04T21:54:08.696Z,44.63
2022-11-04T21:56:34.993Z,44.58
2022-11-04T21:59:01.642Z,44.32
2022-11-04T22:01:28.806Z,44.20
2022-11-04T22:03:56.623Z,44.65
2022-11-04T22:06:23.030Z,44.40
2022-11-04T22:08:53.755Z,44.33
2022-11-04T22:11:22.125Z,44.47
2022-11-04T22:13:48.746Z,44.48
2022-11-04T22:16:19.274Z,44.55
2022-11-04T22:18:45.942Z,44.80
2022-11-04T22:21:14.127Z,44.59
2022-11-04T22:23:41.328Z,44.40
2022-11-04T22:26:10.032Z,44.47
2022-11-04T22:28:36.451Z,44.46
2022-11-04T22:31:10.692Z,44.47
2022-11-04T22:33:37.804Z,44.36
2022-11-04T22:36:07.679Z,44.64
2022-11-04T22:38:34.688Z,44.75
2022-11-04T22:41:01.558Z,44.71
2022-11-04T22:43:27.831Z,44.37
2022-11-04T22:45:55.581Z,44.43
2022-11-04T22:48:22.052Z,44.49
2022-11-04T22:50:53.855Z,44.33
2022-11-04T22:53:20.323Z,44.41
2022-11-04T22:55:46.535Z,44.42
2022-11-04T22:58:12.835Z,44.41
2022-11-04T23:00:39.152Z,44.38
2022-11-04T23:03:05.682Z,44.46
2022-11-04T23:05:32.438Z,44.47
2022-11-04T23:08:00.191Z,44.66
2022-11-04T23:10:48.559Z,44.65
2022-11-04T23:13:33.794Z,44.61
2022-11-04T23:16:18.793Z,44.54
2022-11-04T23:18:46.445Z,44.56
2022-11-04T23:21:32.357Z,44.55
2022-11-04T23:24:17.590Z,44.52
2022-11-04T23:26:45.352Z,44.94
2022-11-04T23:29:31.053Z,44.46
2022-11-04T23:31:57.453Z,44.65
2022-11-04T23:34:42.562Z,44.58
2022-11-04T23:37:12.711Z,44.66
2022-11-04T23:39:43.231Z,44.65
2022-11-04T23:42:16.164Z,44.58
2022-11-04T23:45:19.295Z,44.64
2022-11-04T23:48:05.046Z,44.54
2022-11-04T23:50:51.428Z,44.62
2022-11-04T23:53:38.994Z,44.56
2022-11-04T23:56:24.164Z,44.55
2022-11-04T23:59:08.962Z,44.72
